Close Search

Base
°C
Summit
°C

WEATHER AT A GLANCE

Image Slideshow

RMR Village

Revelstoke Mountain Resort -  RMR Village Webcam

Top of The Stoke

Revelstoke Mountain Resort -  Top of The Stoke Webcam

Top of Stellar

Revelstoke Mountain Resort -  Top of Stellar Webcam

Mackenzie Outpost

Revelstoke Mountain Resort -  Mackenzie Outpost Webcam

Ripper

Revelstoke Mountain Resort -  Ripper Webcam
Base
°C
Summit
°C
Wind (Summit)
km/h

Today's Forecast

Subpeak Weather

Time Avg. Air Temp Dew Point Avg. Rel Humidity Avg. 2 Min Wind Speed Max Gust Velocity MGV Time MGV Direction Avg. Spot Wind Velocity
2026-05-05 21:55:006° C-8° C38%8 km/h9 km/h21:52:00NE8 km/h
20:55:006° C-8° C37%6 km/h9 km/h20:55:00N7 km/h
19:55:005° C-8° C39%13 km/h16 km/h19:55:00N11 km/h
18:55:005° C-8° C38%10 km/h21 km/h18:52:00NE9 km/h
17:55:006° C-7° C38%11 km/h21 km/h17:53:00NE11 km/h
16:55:006° C-8° C35%15 km/h29 km/h16:53:00NE11 km/h
15:55:006° C-7° C39%13 km/h21 km/h15:54:00NW11 km/h
14:55:005° C-6° C43%5 km/h9 km/h14:55:00NE5 km/h
13:55:005° C-7° C44%7 km/h9 km/h13:53:00NE8 km/h
12:55:005° C-6° C43%7 km/h12 km/h12:53:00E6 km/h
11:55:004° C-7° C45%1 km/h3 km/h11:53:00N1 km/h
10:55:003° C-7° C50%3 km/h8 km/h10:51:00E3 km/h
09:55:002° C-7° C50%8 km/h16 km/h09:51:00NE9 km/h
08:55:001° C-8° C51%24 km/h27 km/h08:52:00NE23 km/h
07:55:001° C-9° C51%28 km/h33 km/h07:54:00NE29 km/h
06:55:000° C-8° C54%25 km/h31 km/h06:55:00NE24 km/h
05:55:000° C-8° C52%16 km/h31 km/h05:52:00NE15 km/h
04:55:000° C-8° C53%26 km/h33 km/h04:52:00NE26 km/h
03:55:001° C-8° C51%27 km/h37 km/h03:51:00NE30 km/h
02:55:001° C-8° C50%34 km/h38 km/h02:54:00NE32 km/h
01:55:001° C-8° C51%28 km/h38 km/h01:53:00NE32 km/h
00:55:001° C-7° C56%39 km/h46 km/h00:54:00NE39 km/h
23:55:001° C-6° C58%29 km/h42 km/h23:55:00NE31 km/h
22:55:002° C-5° C58%19 km/h41 km/h22:52:00NE25 km/h

Time Avg. Air Temp Dew Point Avg. Rel Humidity Avg. 2 Min Wind Speed Max Gust Velocity MGV Time MGV Direction Avg. Spot Wind Velocity
2026-05-05 21:55:006° C-8° C38%8 km/h9 km/h21:52:00NE8 km/h
21:50:006° C-8° C37%10 km/h12 km/h21:50:00N10 km/h
21:45:006° C-8° C37%11 km/h12 km/h21:44:00N11 km/h
21:40:006° C-8° C37%11 km/h12 km/h21:37:00NE11 km/h
21:35:006° C-8° C37%11 km/h11 km/h21:33:00NE11 km/h
21:30:006° C-8° C38%10 km/h12 km/h21:27:00NE10 km/h
21:25:005° C-8° C38%8 km/h10 km/h21:25:00NE6 km/h
21:20:005° C-8° C38%7 km/h10 km/h21:16:00N6 km/h
21:15:005° C-8° C38%9 km/h10 km/h21:14:00N8 km/h
21:10:005° C-8° C39%6 km/h9 km/h21:09:00N6 km/h
21:05:005° C-8° C38%3 km/h8 km/h21:03:00NW4 km/h
21:00:005° C-7° C38%5 km/h8 km/h20:58:00N4 km/h
20:55:006° C-8° C37%6 km/h9 km/h20:55:00N7 km/h

We value your privacy
We use cookies to enhance your browsing experience, serve personalized ads or content, and analyze our traffic. By clicking "Allow Cookies", you consent to our use of cookies. For additional details view our Privacy Policy.
Cookie preferences

You can control how your data is used on our website. Learn more below about the cookies we use by reviewing our Privacy Policy.

Your cookie preferences have been saved.